Flight Track Log - Related Links

Times and Time Zones

All times are in EDT time to prevent confusion due to time zone crossing. See the UAL4380 flight status page for this flight to view local times or setup timezone preferences in your user account.

Time Position Orientation Groundspeed Altitude Reporting Facility
EDT Latitude Longitude Course Direction KTS MPH feet Rate Location/Type
Thu 06:47:47 AM 26.1567 -98.2222 24° Northeast 117 135 1,100  Level Houston Center
Thu 06:48:48 AM 26.1922 -98.1803 47° Northeast 225 259 2,900 1,650 Climbing Houston Center
Thu 06:49:07 AM 26.2150 -98.1708 20° North 249 287 3,300 1,600 Climbing Houston Center
Thu 06:49:48 AM 26.2689 -98.1469 22° Northeast 288 331 4,500 1,869 Climbing Houston Center
Thu 06:50:00 AM 26.3724 -98.1344 20° North  Level FlightAware Approximate
Thu 06:50:08 AM 26.2944 -98.1372 19° North 297 342 5,200  Level Houston Center
Thu 06:51:00 AM 26.4420 -98.1040 24° Northeast  Level FlightAware Approximate
Thu 06:51:08 AM 26.3756 -98.1031 21° North 309 356 7,600  Level Houston Center
Thu 06:52:00 AM 26.5102 -98.0699 24° Northeast  Level FlightAware Approximate
Thu 06:52:09 AM 26.4542 -98.0692 21° North 304 350 9,300  Level Houston Center
Thu 06:53:09 AM 26.5367 -98.0344 21° North 313 360 10,800 1,190 Climbing Houston Center
Thu 06:54:10 AM 26.6264 -97.9967 21° North 338 389 11,700 1,041 Climbing Houston Center
Thu 06:55:10 AM 26.7214 -97.9558 21° North 358 412 12,900 1,250 Climbing Houston Center
Thu 06:56:10 AM 26.8253 -97.9114 21° North 368 423 14,200 1,240 Climbing Houston Center
Thu 06:57:11 AM 26.9228 -97.8703 21° North 373 429 15,400 1,190 Climbing Houston Center
Thu 06:58:11 AM 27.0214 -97.8275 21° North 378 435 16,600 1,190 Climbing Houston Center
Thu 06:59:12 AM 27.1219 -97.7836 21° North 384 442 17,800 1,190 Climbing Houston Center
Thu 07:00:12 AM 27.2061 -97.7464 21° North 389 448 19,000 1,190 Climbing Houston Center
Thu 07:01:13 AM 27.3083 -97.7019 21° North 393 452 20,200 1,190 Climbing Houston Center
Thu 07:02:13 AM 27.4108 -97.6592 20° North 393 452 21,400 1,190 Climbing Houston Center
Thu 07:03:14 AM 27.5125 -97.6147 21° North 393 452 22,600 1,339 Climbing Houston Center
Thu 07:04:14 AM 27.6311 -97.5450 28° Northeast 404 465 24,100 1,350 Climbing Houston Center
Thu 07:05:14 AM 27.7261 -97.4786 32° Northeast 404 465 25,300 1,190 Climbing Houston Center
Thu 07:06:15 AM 27.8214 -97.4094 33° Northeast 407 468 26,500 843 Climbing Houston Center
Thu 07:07:15 AM 27.9192 -97.3408 32° Northeast 411 473 27,000 248 Climbing Houston Center
Thu 07:08:16 AM 28.0208 -97.2700 32° Northeast 434 499 27,000  Level Houston Center
Thu 07:09:16 AM 28.1314 -97.1922 32° Northeast 462 532 27,000  Level Houston Center
Thu 07:10:17 AM 28.2444 -97.1117 32° Northeast 476 548 27,000  Level Houston Center
Thu 07:11:17 AM 28.3578 -97.0300 32° Northeast 482 555 27,000  Level Houston Center
Thu 07:12:18 AM 28.4742 -96.9467 32° Northeast 492 566 27,000 -344 Level Houston Center
Thu 07:13:19 AM 28.5897 -96.8631 32° Northeast 492 566 26,300 -793 Descending Houston Center
Thu 07:14:19 AM 28.7061 -96.8203 18° North 454 522 25,400 -1,240 Descending Houston Center
Thu 07:15:20 AM 28.8242 -96.8353 354° North 427 491 23,800 -1,574 Descending Houston Center
Thu 07:16:21 AM 28.9394 -96.8447 356° North 420 483 22,200 -1,785 Descending Houston Center
Thu 07:17:21 AM 29.0458 -96.7942 23° Northeast 426 490 20,200 -1,983 Descending Houston Center
Thu 07:18:22 AM 29.1242 -96.6953 48° Northeast 426 490 18,200 -2,262 Descending Houston Center
Thu 07:19:23 AM 29.2164 -96.5822 47° Northeast 411 473 15,600 -2,281 Descending Houston Center
Thu 07:20:23 AM 29.2881 -96.4906 48° Northeast 396 456 13,600 -1,983 Descending Houston Center
Thu 07:21:18 AM 29.3522 -96.4111 47° Northeast 371 427 11,800 -2,023 Descending Houston Center
Thu 07:21:49 AM 29.3922 -96.3636 46° Northeast 371 427 10,700 -1,612 Descending Houston Center
Thu 07:22:25 AM 29.4261 -96.3186 49° Northeast 366 421 10,000 -700 Descending Houston Center
Thu 07:22:49 AM 29.4606 -96.2769 46° Northeast 364 419 10,000 -100 Level Houston Center
Thu 07:23:25 AM 29.4936 -96.2328 49° Northeast 364 419 9,900  Descending Houston Center
Thu 07:23:50 AM 29.5267 -96.1903 48° Northeast 360 414 10,000 98 Climbing Houston Center
Thu 07:24:26 AM 29.5617 -96.1481 46° Northeast 363 418 10,000  Level Houston Center
Thu 07:24:51 AM 29.5994 -96.1103 41° Northeast 364 419 10,000 -98 Level Houston Center
Thu 07:25:27 AM 29.6372 -96.0692 43° Northeast 366 421 9,900 -400 Descending Houston Center
Thu 07:25:51 AM 29.6706 -96.0350 42° Northeast 348 400 9,600 -1,000 Descending Houston Center
Thu 07:26:27 AM 29.7003 -96.0003 45° Northeast 335 386 8,900 -1,475 Descending Houston Center
Thu 07:26:52 AM 29.7336 -95.9628 44° Northeast 322 371 8,100 -1,475 Descending Houston Center
Thu 07:27:28 AM 29.7653 -95.9303 42° Northeast 320 368 7,400 -1,377 Descending Houston Center
Thu 07:27:53 AM 29.7989 -95.8928 44° Northeast 320 368 6,700 -1,377 Descending Houston Center
Thu 07:28:29 AM 29.8300 -95.8589 43° Northeast 322 371 6,000 -1,600 Descending Houston Center
Thu 07:28:53 AM 29.8642 -95.8228 43° Northeast 317 365 5,100 -1,377 Descending Houston Center
Thu 07:29:30 AM 29.8939 -95.7914 42° Northeast 314 361 4,600 -1,082 Descending Houston Center
Thu 07:29:54 AM 29.9275 -95.7550 43° Northeast 282 325 4,000 -600 Descending Houston Center
Thu 07:30:30 AM 29.9497 -95.7311 43° Northeast 283 326 4,000  Level Houston Center
Thu 07:30:55 AM 29.9789 -95.6961 46° Northeast 251 289 4,000  Level Houston Center
Thu 07:31:31 AM 29.9939 -95.6561 67° East 241 277 4,000  Level Houston Center
Thu 07:31:55 AM 29.9919 -95.6317 95° East 188 216 4,000  Level Houston Center
Thu 07:32:32 AM 29.9933 -95.5958 87° East 198 228 4,000 -295 Level Houston Center
Thu 07:32:56 AM 29.9928 -95.5714 91° East 178 205 3,700 -885 Descending Houston Center
Thu 07:33:33 AM 29.9928 -95.5361 90° East 187 215 3,100 -885 Descending Houston Center
Thu 07:33:57 AM 29.9922 -95.5161 92° East 172 198 2,800 -787 Descending Houston Center
Thu 07:34:34 AM 29.9933 -95.4886 87° East 169 194 2,300 -689 Descending Houston Center
Thu 07:34:58 AM 29.9925 -95.4725 93° East 126 145 2,100 -700 Descending Houston Center
Thu 07:35:34 AM 29.9925 -95.4489 90° East 144 166 1,600 -833 Descending Houston Center

Login

Don't have an account? Register now (free) for customized features, flight alerts, and more!